createdAt,value
2022-09-26T00:00:24.510Z,100.00
2022-09-26T00:05:26.942Z,100.00
2022-09-26T00:10:32.065Z,100.00
2022-09-26T00:15:34.205Z,100.00
2022-09-26T00:20:37.333Z,100.00
2022-09-26T00:25:49.182Z,100.00
2022-09-26T00:30:51.591Z,100.00
2022-09-26T00:35:55.410Z,100.00
2022-09-26T00:40:58.151Z,100.00
2022-09-26T00:46:22.944Z,100.00
2022-09-26T00:51:25.501Z,100.00
2022-09-26T00:56:33.814Z,100.00
2022-09-26T01:01:36.377Z,100.00
2022-09-26T01:06:38.904Z,100.00
2022-09-26T01:11:42.305Z,100.00
2022-09-26T01:16:48.480Z,100.00
2022-09-26T01:22:12.380Z,100.00
2022-09-26T01:27:22.280Z,100.00
2022-09-26T01:32:55.405Z,100.00
2022-09-26T01:38:20.508Z,100.00
2022-09-26T01:43:34.045Z,100.00
2022-09-26T01:48:46.058Z,100.00
2022-09-26T01:54:00.528Z,100.00
2022-09-26T01:59:09.733Z,100.00
2022-09-26T02:04:20.484Z,100.00
2022-09-26T02:09:35.428Z,100.00
2022-09-26T02:14:42.116Z,100.00
2022-09-26T02:19:44.518Z,100.00
2022-09-26T02:24:46.747Z,100.00
2022-09-26T02:29:48.828Z,100.00
2022-09-26T02:34:53.149Z,100.00
2022-09-26T02:39:56.377Z,100.00
2022-09-26T02:45:23.017Z,100.00
2022-09-26T02:50:56.610Z,100.00
2022-09-26T02:56:17.548Z,100.00
2022-09-26T03:01:29.375Z,100.00
2022-09-26T03:06:40.072Z,100.00
2022-09-26T03:11:43.636Z,100.00
2022-09-26T03:16:46.607Z,100.00
2022-09-26T03:21:49.386Z,100.00
2022-09-26T03:26:53.290Z,100.00
2022-09-26T03:31:55.773Z,100.00
2022-09-26T03:36:58.380Z,100.00
2022-09-26T03:42:00.661Z,100.00
2022-09-26T03:47:05.393Z,100.00
2022-09-26T03:52:14.074Z,100.00
2022-09-26T03:57:18.745Z,100.00
2022-09-26T04:02:26.584Z,100.00
2022-09-26T04:07:45.132Z,100.00
2022-09-26T04:12:47.547Z,100.00
2022-09-26T04:17:51.161Z,100.00
2022-09-26T04:22:55.318Z,100.00
2022-09-26T04:27:57.391Z,100.00
2022-09-26T04:32:59.960Z,100.00
2022-09-26T04:38:19.077Z,100.00
2022-09-26T04:43:21.376Z,100.00
2022-09-26T04:48:24.456Z,100.00
2022-09-26T04:53:44.450Z,100.00
2022-09-26T04:58:54.886Z,100.00
2022-09-26T05:03:58.626Z,100.00
2022-09-26T05:09:04.456Z,100.00
2022-09-26T05:14:27.446Z,100.00
2022-09-26T05:19:29.749Z,100.00
2022-09-26T05:25:13.712Z,100.00
2022-09-26T05:30:16.233Z,100.00
2022-09-26T05:35:19.099Z,100.00
2022-09-26T05:40:39.771Z,100.00
2022-09-26T05:45:43.352Z,100.00
2022-09-26T05:50:48.887Z,100.00
2022-09-26T05:55:51.905Z,100.00
2022-09-26T06:01:20.469Z,100.00
2022-09-26T06:06:30.867Z,63.96
2022-09-26T06:11:43.801Z,40.01
2022-09-26T06:16:46.200Z,32.91
2022-09-26T06:21:49.210Z,34.40
2022-09-26T06:26:52.072Z,32.86
2022-09-26T06:31:54.388Z,30.47
2022-09-26T06:37:22.331Z,28.99
2022-09-26T06:42:25.510Z,29.92
2022-09-26T06:47:47.550Z,29.75
2022-09-26T06:53:13.435Z,27.62
2022-09-26T06:58:15.881Z,28.39
2022-09-26T07:03:33.116Z,30.34
2022-09-26T07:09:03.035Z,31.10
2022-09-26T07:14:24.805Z,34.41
2022-09-26T07:19:32.067Z,34.15
2022-09-26T07:24:39.924Z,33.65
2022-09-26T07:29:42.919Z,33.67
2022-09-26T07:34:45.771Z,35.31
2022-09-26T07:39:52.793Z,33.98
2022-09-26T07:50:19.938Z,34.06
2022-09-26T07:56:05.722Z,33.05
2022-09-26T08:01:29.998Z,31.80
2022-09-26T08:06:51.230Z,29.83
2022-09-26T08:11:53.568Z,28.62
2022-09-26T08:17:18.278Z,22.86
2022-09-26T08:22:20.594Z,20.52
2022-09-26T08:27:27.367Z,25.41
2022-09-26T08:32:32.544Z,23.90
2022-09-26T08:37:35.359Z,24.38
2022-09-26T08:43:18.518Z,22.13
2022-09-26T08:49:02.146Z,20.84
2022-09-26T08:54:19.407Z,21.20
2022-09-26T08:59:27.816Z,21.47
2022-09-26T09:04:50.259Z,22.87
2022-09-26T09:10:05.105Z,21.79
2022-09-26T09:15:39.929Z,20.66
2022-09-26T09:21:00.869Z,20.17
2022-09-26T09:31:42.247Z,23.51
2022-09-26T09:37:07.803Z,22.60
2022-09-26T09:42:50.492Z,22.34
2022-09-26T09:47:52.952Z,23.10
2022-09-26T09:53:27.832Z,23.05
2022-09-26T09:58:48.338Z,22.98
2022-09-26T10:04:07.204Z,23.28
2022-09-26T10:09:39.031Z,21.79
2022-09-26T10:15:20.590Z,21.01
2022-09-26T10:21:12.414Z,21.84
2022-09-26T10:26:16.400Z,22.63
2022-09-26T10:31:23.505Z,24.86
2022-09-26T10:36:44.067Z,25.01
2022-09-26T10:41:48.138Z,25.54
2022-09-26T10:46:53.195Z,25.42
2022-09-26T10:52:23.890Z,25.01
2022-09-26T10:57:53.349Z,25.16
2022-09-26T11:02:58.006Z,25.53
2022-09-26T11:08:05.716Z,25.05
2022-09-26T11:13:32.585Z,26.77
2022-09-26T11:18:45.312Z,26.04
2022-09-26T11:24:03.225Z,27.41
2022-09-26T11:29:45.292Z,27.65
2022-09-26T11:34:54.626Z,26.40
2022-09-26T11:40:31.281Z,26.50
2022-09-26T11:45:47.343Z,26.66
2022-09-26T11:51:17.841Z,26.73
2022-09-26T11:56:43.687Z,27.29
2022-09-26T12:02:11.426Z,28.52
2022-09-26T12:07:44.617Z,28.75
2022-09-26T12:13:11.821Z,27.38
2022-09-26T12:18:25.110Z,27.84
2022-09-26T12:23:57.019Z,27.96
2022-09-26T12:29:08.753Z,28.53
2022-09-26T12:34:40.835Z,28.95
2022-09-26T12:39:52.449Z,28.49
2022-09-26T12:45:17.435Z,29.96
2022-09-26T12:50:41.224Z,28.95
2022-09-26T12:56:07.392Z,29.80
2022-09-26T13:01:43.707Z,29.65
2022-09-26T13:07:14.754Z,29.99
2022-09-26T13:12:40.760Z,30.45
2022-09-26T13:17:47.528Z,30.61
2022-09-26T13:23:06.383Z,31.47
2022-09-26T13:28:34.998Z,31.26
2022-09-26T13:33:52.296Z,33.08
2022-09-26T13:39:03.669Z,32.63
2022-09-26T13:44:44.625Z,33.14
2022-09-26T13:50:05.155Z,31.97
2022-09-26T13:55:12.825Z,31.87
2022-09-26T14:00:18.105Z,31.87
2022-09-26T14:05:20.292Z,31.62
2022-09-26T14:10:25.291Z,32.56
2022-09-26T14:15:48.544Z,32.68
2022-09-26T14:21:12.908Z,32.60
2022-09-26T14:26:42.403Z,34.22
2022-09-26T14:32:15.311Z,35.57
2022-09-26T14:37:41.989Z,40.02
2022-09-26T14:42:44.251Z,44.82
2022-09-26T14:47:56.626Z,46.00
2022-09-26T14:53:10.163Z,44.57
2022-09-26T15:05:09.525Z,47.45
2022-09-26T15:10:11.972Z,43.89
2022-09-26T15:15:49.463Z,41.30
2022-09-26T15:21:00.491Z,39.86
2022-09-26T15:26:09.316Z,39.98
2022-09-26T15:31:25.247Z,40.25
2022-09-26T15:36:30.270Z,39.78
2022-09-26T15:41:52.288Z,42.34
2022-09-26T15:46:54.833Z,42.08
2022-09-26T16:06:02.887Z,48.65
2022-09-26T16:11:22.645Z,52.94
2022-09-26T16:52:43.103Z,68.91
2022-09-26T17:03:30.802Z,72.81
2022-09-26T17:08:34.172Z,75.00
2022-09-26T17:13:36.576Z,78.06
2022-09-26T17:18:39.836Z,79.24
2022-09-26T17:23:42.708Z,81.93
2022-09-26T17:28:45.176Z,80.89
2022-09-26T17:33:52.627Z,82.51
2022-09-26T17:38:58.008Z,84.00
2022-09-26T17:44:01.219Z,85.44
2022-09-26T17:49:08.631Z,85.73
2022-09-26T17:54:26.363Z,87.31
2022-09-26T17:59:29.438Z,88.18
2022-09-26T18:04:31.895Z,88.63
2022-09-26T18:09:35.982Z,89.55
2022-09-26T18:14:42.616Z,93.79
2022-09-26T18:20:01.812Z,94.15
2022-09-26T18:25:15.250Z,90.92
2022-09-26T18:30:19.473Z,89.80
2022-09-26T18:35:25.109Z,91.47
2022-09-26T18:40:29.046Z,92.31
2022-09-26T18:51:03.698Z,91.25
2022-09-26T18:56:28.421Z,91.66
2022-09-26T19:01:34.642Z,91.88
2022-09-26T19:06:41.932Z,93.12
2022-09-26T19:17:38.533Z,94.52
2022-09-26T19:22:41.209Z,90.08
2022-09-26T19:27:49.866Z,91.43
2022-09-26T19:32:54.426Z,91.24
2022-09-26T19:38:03.827Z,95.32
2022-09-26T19:49:07.361Z,91.39
2022-09-26T19:54:18.136Z,93.74
2022-09-26T19:59:25.327Z,92.97
2022-09-26T20:04:31.534Z,94.64
2022-09-26T20:15:13.807Z,90.34
2022-09-26T20:20:24.858Z,86.61
2022-09-26T20:25:30.148Z,81.88
2022-09-26T20:30:51.169Z,80.37
2022-09-26T20:36:13.475Z,83.65
2022-09-26T20:41:44.742Z,86.69
2022-09-26T20:47:33.057Z,88.85
2022-09-26T20:52:48.522Z,93.57
2022-09-26T20:57:53.474Z,93.08
2022-09-26T21:02:57.550Z,95.67
2022-09-26T21:08:00.997Z,98.81
2022-09-26T21:13:03.466Z,100.00
2022-09-26T21:18:05.827Z,100.00
2022-09-26T21:23:10.576Z,100.00
2022-09-26T21:35:05.193Z,100.00
2022-09-26T21:40:08.610Z,100.00
2022-09-26T21:45:12.239Z,100.00
2022-09-26T21:50:14.626Z,100.00
2022-09-26T21:55:22.613Z,100.00
2022-09-26T22:05:58.315Z,100.00
2022-09-26T22:11:00.961Z,100.00
2022-09-26T22:16:11.636Z,100.00
2022-09-26T22:21:17.130Z,100.00
2022-09-26T22:26:20.145Z,100.00
2022-09-26T22:31:22.620Z,100.00
2022-09-26T22:36:25.291Z,100.00
2022-09-26T22:41:27.566Z,100.00
2022-09-26T22:46:33.650Z,100.00
2022-09-26T22:51:35.958Z,100.00
2022-09-26T22:56:38.355Z,100.00
2022-09-26T23:01:40.793Z,100.00
2022-09-26T23:06:43.174Z,100.00
2022-09-26T23:11:47.265Z,100.00
2022-09-26T23:16:49.420Z,100.00
2022-09-26T23:21:51.967Z,100.00
2022-09-26T23:26:54.153Z,100.00
2022-09-26T23:31:56.345Z,100.00
2022-09-26T23:36:58.493Z,100.00
2022-09-26T23:42:00.822Z,100.00
2022-09-26T23:47:04.470Z,100.00
2022-09-26T23:52:06.649Z,100.00
2022-09-26T23:57:09.724Z,100.00
